createdAt,value
2018-09-18T00:03:20.085Z,2.97
2018-09-18T00:08:23.463Z,3.57
2018-09-18T00:13:26.712Z,2.53
2018-09-18T00:18:29.992Z,3.30
2018-09-18T00:23:33.276Z,3.17
2018-09-18T00:28:36.546Z,3.07
2018-09-18T00:33:39.839Z,3.50
2018-09-18T00:38:43.114Z,2.80
2018-09-18T00:43:46.336Z,2.77
2018-09-18T00:48:49.579Z,3.20
2018-09-18T00:53:52.795Z,3.10
2018-09-18T00:58:56.044Z,3.50
2018-09-18T01:03:59.276Z,3.67
2018-09-18T01:09:02.512Z,3.60
2018-09-18T01:14:05.776Z,3.73
2018-09-18T01:19:09.060Z,3.37
2018-09-18T01:24:12.337Z,2.80
2018-09-18T01:29:15.598Z,3.33
2018-09-18T01:34:18.928Z,3.37
2018-09-18T01:39:22.215Z,2.70
2018-09-18T01:44:25.507Z,3.00
2018-09-18T01:49:28.777Z,2.83
2018-09-18T01:54:32.056Z,3.23
2018-09-18T01:59:35.333Z,2.90
2018-09-18T02:04:38.615Z,3.13
2018-09-18T02:09:41.856Z,2.87
2018-09-18T02:14:45.109Z,3.13
2018-09-18T02:19:48.375Z,3.23
2018-09-18T02:24:51.685Z,3.27
2018-09-18T02:29:54.952Z,3.37
2018-09-18T02:34:58.234Z,3.27
2018-09-18T02:40:01.512Z,3.30
2018-09-18T02:45:04.800Z,2.63
2018-09-18T02:50:08.084Z,3.50
2018-09-18T02:55:11.337Z,3.47
2018-09-18T03:00:14.605Z,3.20
2018-09-18T03:05:17.889Z,3.60
2018-09-18T03:10:21.136Z,3.10
2018-09-18T03:15:24.396Z,3.23
2018-09-18T03:20:27.673Z,3.10
2018-09-18T03:25:30.949Z,2.70
2018-09-18T03:30:34.222Z,3.10
2018-09-18T03:35:37.606Z,3.13
2018-09-18T03:40:40.847Z,3.40
2018-09-18T03:45:44.158Z,3.50
2018-09-18T03:50:47.428Z,3.90
2018-09-18T03:55:50.696Z,3.03
2018-09-18T04:00:54.248Z,3.30
2018-09-18T04:05:57.519Z,3.13
2018-09-18T04:11:00.785Z,3.60
2018-09-18T04:16:04.040Z,2.90
2018-09-18T04:21:07.322Z,3.67
2018-09-18T04:26:10.588Z,3.30
2018-09-18T04:31:14.041Z,3.63
2018-09-18T04:36:17.288Z,3.00
2018-09-18T04:41:20.591Z,3.37
2018-09-18T04:46:24.062Z,3.37
2018-09-18T04:51:27.314Z,3.47
2018-09-18T04:56:30.746Z,3.40
2018-09-18T05:01:34.182Z,3.77
2018-09-18T05:06:37.428Z,3.93
2018-09-18T05:11:40.820Z,3.93
2018-09-18T05:16:44.085Z,3.60
2018-09-18T05:21:47.361Z,3.57
2018-09-18T05:26:50.612Z,3.23
2018-09-18T05:31:53.872Z,3.70
2018-09-18T05:36:57.153Z,4.10
2018-09-18T05:42:00.514Z,3.57
2018-09-18T05:47:03.696Z,3.70
2018-09-18T05:52:06.967Z,3.53
2018-09-18T05:57:10.327Z,3.87
2018-09-18T06:02:13.616Z,4.07
2018-09-18T06:07:17.076Z,3.90
2018-09-18T06:12:20.376Z,3.40
2018-09-18T06:17:23.601Z,3.47
2018-09-18T06:22:26.844Z,4.00
2018-09-18T06:27:30.088Z,3.83
2018-09-18T06:32:33.398Z,4.33
2018-09-18T06:37:36.703Z,4.07
2018-09-18T06:42:39.932Z,4.00
2018-09-18T06:47:43.185Z,3.40
2018-09-18T06:52:46.480Z,4.00
2018-09-18T06:57:49.760Z,3.97
2018-09-18T07:02:53.064Z,4.33
2018-09-18T07:07:56.325Z,3.67
2018-09-18T07:12:59.624Z,3.37
2018-09-18T07:18:02.918Z,4.23
2018-09-18T07:23:06.169Z,3.43
2018-09-18T07:28:09.413Z,3.50
2018-09-18T07:33:12.685Z,3.90
2018-09-18T07:38:15.977Z,4.50
2018-09-18T07:43:19.240Z,4.60
2018-09-18T07:48:22.593Z,3.77
2018-09-18T07:53:25.837Z,3.30
2018-09-18T07:58:29.104Z,4.07
2018-09-18T08:03:32.382Z,3.70
2018-09-18T08:08:35.661Z,4.27
2018-09-18T08:13:38.909Z,4.33
2018-09-18T08:18:42.310Z,4.10
2018-09-18T08:23:45.537Z,4.10
2018-09-18T08:28:48.817Z,4.00
2018-09-18T08:33:52.069Z,4.00
2018-09-18T08:38:55.345Z,3.50
2018-09-18T08:43:58.636Z,4.40
2018-09-18T08:49:01.901Z,4.30
2018-09-18T08:54:05.136Z,4.00
2018-09-18T08:59:08.373Z,3.43
2018-09-18T09:04:11.616Z,4.07
2018-09-18T09:09:15.443Z,4.27
2018-09-18T09:14:18.689Z,3.63
2018-09-18T09:19:21.917Z,4.00
2018-09-18T09:24:25.183Z,3.20
2018-09-18T09:29:28.410Z,4.40
2018-09-18T09:34:31.669Z,4.13
2018-09-18T09:39:34.952Z,3.70
2018-09-18T09:44:38.257Z,4.13
2018-09-18T09:49:41.581Z,3.60
2018-09-18T09:54:44.813Z,3.57
2018-09-18T09:59:48.075Z,3.27
2018-09-18T10:04:51.337Z,3.93
2018-09-18T10:09:54.595Z,3.70
2018-09-18T10:14:57.844Z,3.87
2018-09-18T10:20:01.093Z,3.50
2018-09-18T10:25:04.492Z,3.27
2018-09-18T10:30:07.684Z,3.57
2018-09-18T10:35:10.981Z,3.40
2018-09-18T10:40:14.257Z,3.67
2018-09-18T10:45:17.511Z,3.20
2018-09-18T10:50:20.766Z,3.57
2018-09-18T10:55:24.096Z,3.67
2018-09-18T11:00:27.326Z,3.23
2018-09-18T11:05:30.542Z,3.40
2018-09-18T11:10:33.844Z,3.50
2018-09-18T11:15:37.207Z,3.87
2018-09-18T11:20:40.399Z,2.80
2018-09-18T11:25:43.661Z,3.30
2018-09-18T11:30:46.905Z,3.70
2018-09-18T11:35:50.187Z,3.90
2018-09-18T11:40:53.451Z,3.97
2018-09-18T11:45:56.812Z,3.27
2018-09-18T11:50:59.998Z,3.50
2018-09-18T11:56:03.269Z,3.50
2018-09-18T12:01:06.566Z,3.87
2018-09-18T12:06:09.834Z,4.13
2018-09-18T12:11:13.135Z,4.07
2018-09-18T12:16:16.362Z,4.10
2018-09-18T12:21:19.617Z,4.20
2018-09-18T12:26:22.868Z,4.10
2018-09-18T12:31:26.142Z,4.90
2018-09-18T12:36:29.441Z,4.13
2018-09-18T12:41:32.815Z,4.90
2018-09-18T12:46:35.978Z,4.20
2018-09-18T12:51:39.238Z,4.80
2018-09-18T12:56:42.486Z,4.20
2018-09-18T13:01:45.746Z,5.00
2018-09-18T13:06:49.380Z,3.67
2018-09-18T13:11:52.562Z,4.20
2018-09-18T13:16:55.910Z,4.63
2018-09-18T13:21:59.171Z,4.40
2018-09-18T13:27:03.136Z,3.97
2018-09-18T13:32:06.540Z,4.20
2018-09-18T13:37:09.825Z,3.97
2018-09-18T13:42:13.104Z,4.03
2018-09-18T13:47:16.401Z,4.43
2018-09-18T13:52:19.685Z,5.83
2018-09-18T13:57:22.953Z,6.07
2018-09-18T14:02:26.372Z,4.93
2018-09-18T14:07:37.412Z,4.70
2018-09-18T14:12:40.717Z,4.40
2018-09-18T14:17:43.949Z,5.13
2018-09-18T14:22:47.177Z,4.73
2018-09-18T14:27:50.468Z,5.80
2018-09-18T14:32:53.769Z,5.20
2018-09-18T14:37:57.101Z,5.00
2018-09-18T14:43:00.339Z,5.20
2018-09-18T14:48:03.654Z,4.30
2018-09-18T14:53:06.928Z,4.93
2018-09-18T14:58:10.192Z,4.83
2018-09-18T15:03:13.425Z,4.20
2018-09-18T15:08:16.863Z,4.73
2018-09-18T15:13:20.104Z,4.23
2018-09-18T15:18:23.498Z,3.90
2018-09-18T15:23:26.792Z,4.77
2018-09-18T15:28:30.934Z,3.73
2018-09-18T15:33:34.259Z,3.40
2018-09-18T15:38:37.459Z,4.50
2018-09-18T15:43:40.724Z,4.70
2018-09-18T15:48:43.996Z,3.10
2018-09-18T15:53:47.300Z,2.70
2018-09-18T15:58:56.920Z,3.03
2018-09-18T16:04:00.469Z,2.80
2018-09-18T16:09:05.080Z,3.17
2018-09-18T16:14:09.040Z,2.57
2018-09-18T16:19:12.316Z,4.30
2018-09-18T16:24:15.559Z,3.13
2018-09-18T16:29:18.810Z,5.10
2018-09-18T16:34:22.260Z,5.73
2018-09-18T16:39:26.109Z,7.27
2018-09-18T16:44:29.349Z,8.70
2018-09-18T16:49:32.624Z,9.33
2018-09-18T16:54:35.931Z,8.40
2018-09-18T16:59:39.127Z,13.80
2018-09-18T17:04:42.467Z,14.90
2018-09-18T17:09:45.666Z,19.93
2018-09-18T17:14:48.927Z,20.60
2018-09-18T17:19:52.165Z,19.50
2018-09-18T17:24:55.401Z,21.73
2018-09-18T17:29:58.664Z,21.23
2018-09-18T17:35:01.983Z,31.23
2018-09-18T17:40:05.323Z,27.87
2018-09-18T17:45:08.658Z,25.67
2018-09-18T17:50:11.959Z,20.30
2018-09-18T17:55:15.175Z,17.80
2018-09-18T18:00:18.437Z,17.60
2018-09-18T18:05:21.710Z,15.97
2018-09-18T18:10:24.961Z,16.57
2018-09-18T18:15:28.658Z,13.90
2018-09-18T18:20:32.141Z,15.53
2018-09-18T18:25:35.303Z,14.27
2018-09-18T18:30:38.540Z,14.17
2018-09-18T18:35:41.820Z,12.30
2018-09-18T18:40:45.104Z,11.73
2018-09-18T18:45:48.367Z,11.30
2018-09-18T18:50:51.612Z,12.40
2018-09-18T18:55:58.048Z,11.60
2018-09-18T19:01:01.301Z,11.00
2018-09-18T19:06:04.601Z,9.93
2018-09-18T19:11:07.964Z,9.50
2018-09-18T19:16:11.289Z,10.00
2018-09-18T19:21:14.532Z,9.53
2018-09-18T19:26:17.821Z,8.90
2018-09-18T19:31:21.092Z,8.40
2018-09-18T19:36:24.362Z,8.27
2018-09-18T19:41:27.665Z,7.70
2018-09-18T19:46:30.937Z,7.40
2018-09-18T19:51:34.184Z,7.43
2018-09-18T19:56:37.998Z,7.00
2018-09-18T20:01:41.279Z,6.03
2018-09-18T20:06:44.510Z,7.97
2018-09-18T20:11:48.409Z,6.90
2018-09-18T20:16:52.117Z,6.37
2018-09-18T20:21:55.361Z,5.93
2018-09-18T20:26:58.709Z,6.07
2018-09-18T20:32:01.964Z,6.70
2018-09-18T20:37:05.250Z,5.73
2018-09-18T20:42:08.592Z,5.13
2018-09-18T20:47:11.858Z,6.10
2018-09-18T20:52:15.114Z,5.30
2018-09-18T20:57:18.433Z,6.10
2018-09-18T21:02:21.727Z,5.00
2018-09-18T21:07:25.003Z,5.10
2018-09-18T21:12:28.316Z,5.50
2018-09-18T21:17:31.551Z,4.83
2018-09-18T21:22:34.793Z,5.07
2018-09-18T21:27:38.048Z,4.23
2018-09-18T21:32:41.307Z,5.40
2018-09-18T21:37:44.540Z,4.67
2018-09-18T21:42:47.823Z,4.60
2018-09-18T21:47:51.090Z,4.77
2018-09-18T21:52:54.320Z,4.80
2018-09-18T21:57:57.593Z,4.77
2018-09-18T22:03:01.548Z,4.47
2018-09-18T22:08:04.795Z,4.50
2018-09-18T22:13:08.037Z,4.40
2018-09-18T22:18:11.289Z,4.00
2018-09-18T22:23:14.543Z,4.07
2018-09-18T22:28:17.788Z,5.60
2018-09-18T22:33:21.017Z,4.90
2018-09-18T22:38:24.260Z,4.70
2018-09-18T22:43:27.553Z,3.77
2018-09-18T22:48:30.833Z,4.70
2018-09-18T22:53:34.085Z,3.53
2018-09-18T22:58:37.313Z,4.03
2018-09-18T23:03:40.568Z,4.10
2018-09-18T23:08:44.210Z,4.70
2018-09-18T23:13:47.476Z,3.37
2018-09-18T23:18:50.750Z,4.40
2018-09-18T23:23:53.964Z,3.63
2018-09-18T23:28:57.208Z,4.77
2018-09-18T23:34:00.523Z,3.67
2018-09-18T23:39:05.032Z,3.60
2018-09-18T23:44:08.435Z,4.47
2018-09-18T23:49:11.740Z,3.57
2018-09-18T23:54:14.976Z,3.50
2018-09-18T23:59:18.208Z,3.90
